createdAt,value
2022-08-14T00:00:51.691Z,100917.38
2022-08-14T00:05:04.252Z,100919.44
2022-08-14T00:09:15.845Z,100899.34
2022-08-14T00:13:31.101Z,100892.22
2022-08-14T00:17:48.221Z,100896.72
2022-08-14T00:22:04.890Z,100897.16
2022-08-14T00:26:21.700Z,100895.03
2022-08-14T00:30:35.604Z,100891.91
2022-08-14T00:34:54.375Z,100888.59
2022-08-14T00:39:09.650Z,100891.81
2022-08-14T00:43:21.970Z,100893.06
2022-08-14T00:47:43.003Z,100868.91
2022-08-14T00:51:56.550Z,100877.28
2022-08-14T00:56:10.228Z,100872.22
2022-08-14T01:00:37.508Z,100867.69
2022-08-14T01:05:01.410Z,100865.16
2022-08-14T01:09:13.418Z,100847.81
2022-08-14T01:13:42.359Z,100849.84
2022-08-14T01:18:13.472Z,100842.38
2022-08-14T01:22:26.625Z,100852.34
2022-08-14T01:26:38.726Z,100840.47
2022-08-14T01:30:55.800Z,100834.00
2022-08-14T01:35:17.791Z,100832.50
2022-08-14T01:39:33.127Z,100820.00
2022-08-14T01:43:56.437Z,100821.75
2022-08-14T01:48:13.393Z,100816.69
2022-08-14T01:52:34.136Z,100816.78
2022-08-14T01:56:58.050Z,100815.47
2022-08-14T02:01:10.743Z,100806.56
2022-08-14T02:05:29.426Z,100792.72
2022-08-14T02:09:55.959Z,100792.81
2022-08-14T02:14:14.251Z,100789.72
2022-08-14T02:18:27.708Z,100793.38
2022-08-14T02:22:48.009Z,100796.22
2022-08-14T02:28:22.670Z,100785.06
2022-08-14T02:31:43.571Z,100784.88
2022-08-14T02:36:05.116Z,100783.84
2022-08-14T02:40:32.584Z,100781.84
2022-08-14T02:44:49.230Z,100780.81
2022-08-14T02:49:06.240Z,100789.63
2022-08-14T02:53:18.793Z,100784.25
2022-08-14T02:57:40.312Z,100784.69
2022-08-14T03:01:54.689Z,100780.41
2022-08-14T03:06:09.025Z,100781.56
2022-08-14T03:10:25.955Z,100773.47
2022-08-14T03:14:45.387Z,100780.66
2022-08-14T03:19:00.559Z,100777.19
2022-08-14T03:23:13.306Z,100772.63
2022-08-14T03:27:35.362Z,100779.84
2022-08-14T03:31:59.831Z,100773.03
2022-08-14T03:37:37.631Z,100764.09
2022-08-14T03:40:47.177Z,100775.13
2022-08-14T03:45:19.807Z,100763.19
2022-08-14T03:49:30.617Z,100767.31
2022-08-14T03:53:45.058Z,100767.69
2022-08-14T03:57:56.720Z,100759.28
2022-08-14T04:02:33.307Z,100762.63
2022-08-14T04:06:44.548Z,100752.66
2022-08-14T04:11:01.473Z,100754.38
2022-08-14T04:15:15.047Z,100754.66
2022-08-14T04:19:33.143Z,100756.88
2022-08-14T04:23:49.170Z,100745.19
2022-08-14T04:28:11.547Z,100745.50
2022-08-14T04:32:59.108Z,100744.69
2022-08-14T04:37:33.655Z,100746.59
2022-08-14T04:42:03.964Z,100744.69
2022-08-14T04:46:56.426Z,100735.06
2022-08-14T04:50:58.030Z,100742.16
2022-08-14T04:55:11.074Z,100746.22
2022-08-14T04:59:24.074Z,100752.16
2022-08-14T05:03:37.815Z,100742.75
2022-08-14T05:08:01.179Z,100724.63
2022-08-14T05:13:12.579Z,100720.88
2022-08-14T05:16:46.685Z,100731.06
2022-08-14T05:21:54.326Z,100711.41
2022-08-14T05:25:34.196Z,100719.31
2022-08-14T05:29:47.503Z,100702.56
2022-08-14T05:33:59.125Z,100708.00
2022-08-14T05:38:22.290Z,100709.88
2022-08-14T05:42:42.542Z,100710.97
2022-08-14T05:46:59.039Z,100711.09
2022-08-14T05:51:10.704Z,100701.25
2022-08-14T05:55:23.277Z,100706.31
2022-08-14T05:59:39.231Z,100700.66
2022-08-14T06:03:54.660Z,100707.69
2022-08-14T06:08:31.121Z,100699.88
2022-08-14T06:13:05.833Z,100704.50
2022-08-14T06:17:24.738Z,100701.03
2022-08-14T06:21:40.517Z,100698.94
2022-08-14T06:25:53.484Z,100701.13
2022-08-14T06:30:07.627Z,100711.81
2022-08-14T06:35:04.070Z,100704.50
2022-08-14T06:38:55.739Z,100715.78
2022-08-14T06:43:10.033Z,100702.69
2022-08-14T06:47:21.703Z,100707.25
2022-08-14T06:51:38.902Z,100706.28
2022-08-14T06:56:00.830Z,100701.53
2022-08-14T07:00:22.430Z,100705.00
2022-08-14T07:04:57.500Z,100712.22
2022-08-14T07:09:14.850Z,100712.19
2022-08-14T07:13:31.813Z,100702.09
2022-08-14T07:17:52.249Z,100703.03
2022-08-14T07:22:05.377Z,100685.06
2022-08-14T07:26:17.306Z,100697.13
2022-08-14T07:30:33.907Z,100689.13
2022-08-14T07:34:46.755Z,100692.72
2022-08-14T07:38:59.798Z,100691.53
2022-08-14T07:43:14.427Z,100683.13
2022-08-14T07:47:28.649Z,100678.34
2022-08-14T07:51:40.623Z,100673.91
2022-08-14T07:56:00.470Z,100675.50
2022-08-14T08:00:33.447Z,100684.22
2022-08-14T08:04:58.885Z,100678.97
2022-08-14T08:09:12.253Z,100673.75
2022-08-14T08:13:24.565Z,100666.94
2022-08-14T08:17:42.570Z,100677.19
2022-08-14T08:21:54.758Z,100678.50
2022-08-14T08:26:06.463Z,100653.94
2022-08-14T08:30:18.537Z,100665.31
2022-08-14T08:34:30.403Z,100651.41
2022-08-14T08:39:16.409Z,100662.88
2022-08-14T08:43:20.771Z,100653.50
2022-08-14T08:47:41.024Z,100648.88
2022-08-14T08:52:04.457Z,100649.97
2022-08-14T08:56:30.197Z,100658.09
2022-08-14T09:00:54.389Z,100658.75
2022-08-14T09:05:06.997Z,100663.69
2022-08-14T09:09:22.730Z,100661.66
2022-08-14T09:13:34.463Z,100637.97
2022-08-14T09:17:46.353Z,100622.97
2022-08-14T09:22:00.863Z,100625.22
2022-08-14T09:26:34.321Z,100635.84
2022-08-14T09:30:54.696Z,100624.16
2022-08-14T09:35:17.163Z,100635.19
2022-08-14T09:39:31.626Z,100625.69
2022-08-14T09:44:10.149Z,100607.00
2022-08-14T09:48:27.505Z,100589.97
2022-08-14T09:52:54.791Z,100595.41
2022-08-14T09:57:10.182Z,100583.78
2022-08-14T10:01:22.337Z,100581.63
2022-08-14T10:05:39.088Z,100568.50
2022-08-14T10:10:00.146Z,100573.06
2022-08-14T10:14:29.427Z,100561.34
2022-08-14T10:18:52.011Z,100551.41
2022-08-14T10:23:16.177Z,100547.06
2022-08-14T10:27:28.783Z,100547.06
2022-08-14T10:31:45.243Z,100540.03
2022-08-14T10:36:00.595Z,100541.47
2022-08-14T10:40:37.696Z,100544.06
2022-08-14T10:44:52.480Z,100539.97
2022-08-14T10:49:04.926Z,100525.91
2022-08-14T10:53:37.059Z,100521.06
2022-08-14T10:57:53.874Z,100514.56
2022-08-14T11:02:17.651Z,100516.75
2022-08-14T11:06:54.239Z,100508.75
2022-08-14T11:11:07.139Z,100505.88
2022-08-14T11:15:23.449Z,100506.38
2022-08-14T11:19:37.798Z,100495.78
2022-08-14T11:23:53.840Z,100490.50
2022-08-14T11:28:11.081Z,100490.34
2022-08-14T11:32:26.259Z,100482.50
2022-08-14T11:37:09.667Z,100482.75
2022-08-14T11:41:11.401Z,100496.88
2022-08-14T11:45:37.176Z,100482.59
2022-08-14T11:49:51.999Z,100483.84
2022-08-14T11:54:06.279Z,100468.94
2022-08-14T11:58:26.408Z,100472.63
2022-08-14T12:03:02.965Z,100477.97
2022-08-14T12:07:16.832Z,100469.47
2022-08-14T12:11:41.344Z,100460.53
2022-08-14T12:16:06.431Z,100468.91
2022-08-14T12:20:33.365Z,100457.25
2022-08-14T12:24:45.110Z,100452.78
2022-08-14T12:29:13.034Z,100443.09
2022-08-14T12:33:30.906Z,100437.38
2022-08-14T12:37:52.063Z,100417.22
2022-08-14T12:42:07.174Z,100409.75
2022-08-14T12:46:30.959Z,100404.78
2022-08-14T12:50:44.729Z,100411.22
2022-08-14T12:55:06.552Z,100396.06
2022-08-14T12:59:29.171Z,100387.63
2022-08-14T13:03:43.788Z,100377.56
2022-08-14T13:07:59.387Z,100378.78
2022-08-14T13:12:33.608Z,100362.41
2022-08-14T13:16:45.851Z,100369.50
2022-08-14T13:21:02.906Z,100363.88
2022-08-14T13:25:17.626Z,100351.22
2022-08-14T13:29:31.502Z,100354.81
2022-08-14T13:33:43.309Z,100340.88
2022-08-14T13:37:56.680Z,100328.97
2022-08-14T13:42:13.602Z,100325.44
2022-08-14T13:46:26.601Z,100334.25
2022-08-14T13:50:41.370Z,100331.03
2022-08-14T13:54:55.662Z,100321.59
2022-08-14T13:59:09.106Z,100312.81
2022-08-14T14:03:22.846Z,100311.19
2022-08-14T14:07:39.186Z,100317.91
2022-08-14T14:11:56.382Z,100314.25
2022-08-14T14:16:15.464Z,100305.16
2022-08-14T14:20:35.402Z,100301.63
2022-08-14T14:24:47.983Z,100294.06
2022-08-14T14:29:01.746Z,100304.03
2022-08-14T14:33:42.315Z,100294.84
2022-08-14T14:37:47.155Z,100300.00
2022-08-14T14:42:04.103Z,100288.03
2022-08-14T14:46:19.407Z,100285.16
2022-08-14T14:50:31.965Z,100278.28
2022-08-14T14:54:46.382Z,100283.09
2022-08-14T14:58:58.483Z,100271.59
2022-08-14T15:03:10.520Z,100265.28
2022-08-14T15:07:22.189Z,100263.31
2022-08-14T15:11:33.864Z,100266.50
2022-08-14T15:15:59.829Z,100262.97
2022-08-14T15:20:17.310Z,100255.38
2022-08-14T15:24:48.726Z,100260.97
2022-08-14T15:29:06.054Z,100245.41
2022-08-14T15:33:38.058Z,100243.47
2022-08-14T15:38:09.709Z,100250.63
2022-08-14T15:42:23.118Z,100233.91
2022-08-14T15:46:43.204Z,100231.94
2022-08-14T15:50:58.067Z,100224.75
2022-08-14T15:55:14.756Z,100228.34
2022-08-14T15:59:47.973Z,100209.59
2022-08-14T16:04:01.254Z,100216.34
2022-08-14T16:08:26.805Z,100216.78
2022-08-14T16:12:47.613Z,100220.72
2022-08-14T16:17:02.698Z,100216.31
2022-08-14T16:21:21.441Z,100211.50
2022-08-14T16:25:34.374Z,100210.69
2022-08-14T16:29:47.233Z,100205.50
2022-08-14T16:34:46.736Z,100212.28
2022-08-14T16:38:46.458Z,100204.31
2022-08-14T16:43:12.937Z,100202.72
2022-08-14T16:47:35.196Z,100198.34
2022-08-14T16:51:53.028Z,100191.19
2022-08-14T16:56:30.662Z,100181.22
2022-08-14T17:00:46.642Z,100185.94
2022-08-14T17:05:24.863Z,100173.97
2022-08-14T17:09:43.196Z,100172.75
2022-08-14T17:14:00.659Z,100161.97
2022-08-14T17:18:15.039Z,100169.88
2022-08-14T17:22:57.018Z,100157.53
2022-08-14T17:27:10.800Z,100166.22
2022-08-14T17:31:57.733Z,100157.81
2022-08-14T17:36:24.097Z,100146.19
2022-08-14T17:40:36.102Z,100154.50
2022-08-14T17:44:48.196Z,100154.78
2022-08-14T17:49:15.957Z,100156.31
2022-08-14T17:53:30.535Z,100143.88
2022-08-14T17:57:42.941Z,100156.47
2022-08-14T18:02:00.431Z,100152.41
2022-08-14T18:06:40.154Z,100152.25
2022-08-14T18:10:54.908Z,100162.84
2022-08-14T18:15:14.546Z,100156.34
2022-08-14T18:19:30.046Z,100161.66
2022-08-14T18:23:41.935Z,100149.63
2022-08-14T18:27:57.167Z,100158.59
2022-08-14T18:32:27.196Z,100156.44
2022-08-14T18:36:57.065Z,100151.88
2022-08-14T18:41:36.802Z,100156.84
2022-08-14T18:46:01.225Z,100150.25
2022-08-14T18:50:33.785Z,100160.47
2022-08-14T18:54:48.540Z,100153.47
2022-08-14T18:59:03.446Z,100153.25
2022-08-14T19:03:18.023Z,100146.38
2022-08-14T19:07:34.513Z,100149.03
2022-08-14T19:11:50.149Z,100156.00
2022-08-14T19:16:19.046Z,100153.88
2022-08-14T19:21:13.476Z,100156.13
2022-08-14T19:26:03.651Z,100160.22
2022-08-14T19:30:36.478Z,100155.59
2022-08-14T19:34:52.522Z,100150.63
2022-08-14T19:39:04.748Z,100151.69
2022-08-14T19:43:55.413Z,100154.56
2022-08-14T19:47:58.527Z,100154.69
2022-08-14T19:52:25.102Z,100149.38
2022-08-14T19:56:39.415Z,100145.66
2022-08-14T20:00:59.161Z,100146.38
2022-08-14T20:05:12.314Z,100146.25
2022-08-14T20:11:04.940Z,100145.28
2022-08-14T20:13:58.043Z,100135.66
2022-08-14T20:18:18.312Z,100138.72
2022-08-14T20:22:41.542Z,100144.53
2022-08-14T20:27:33.663Z,100130.97
2022-08-14T20:31:47.905Z,100138.28
2022-08-14T20:36:14.976Z,100127.50
2022-08-14T20:40:50.543Z,100138.47
2022-08-14T20:45:24.212Z,100142.03
2022-08-14T20:49:37.301Z,100141.50
2022-08-14T20:53:57.719Z,100132.72
2022-08-14T20:58:43.980Z,100131.47
2022-08-14T21:03:00.905Z,100123.88
2022-08-14T21:07:33.616Z,100118.25
2022-08-14T21:12:02.660Z,100120.94
2022-08-14T21:16:32.972Z,100112.94
2022-08-14T21:20:46.834Z,100120.44
2022-08-14T21:25:02.366Z,100119.19
2022-08-14T21:29:21.510Z,100109.53
2022-08-14T21:33:38.497Z,100113.56
2022-08-14T21:37:56.066Z,100125.16
2022-08-14T21:42:11.050Z,100113.66
2022-08-14T21:46:22.910Z,100114.09
2022-08-14T21:50:59.824Z,100105.44
2022-08-14T21:55:12.332Z,100093.94
2022-08-14T21:59:29.085Z,100087.53
2022-08-14T22:03:46.928Z,100089.50
2022-08-14T22:08:12.386Z,100088.69
2022-08-14T22:12:58.506Z,100083.16
2022-08-14T22:17:01.883Z,100081.13
2022-08-14T22:21:25.074Z,100070.78
2022-08-14T22:25:41.547Z,100072.19
2022-08-14T22:29:54.865Z,100072.00
2022-08-14T22:34:15.188Z,100073.53
2022-08-14T22:38:37.530Z,100067.03
2022-08-14T22:43:00.028Z,100074.31
2022-08-14T22:47:12.654Z,100061.63
2022-08-14T22:51:26.077Z,100064.28
2022-08-14T22:55:40.096Z,100062.22
2022-08-14T22:59:52.369Z,100060.88
2022-08-14T23:04:06.273Z,100062.66
2022-08-14T23:08:58.131Z,100064.41
2022-08-14T23:12:54.657Z,100053.19
2022-08-14T23:17:07.824Z,100048.25
2022-08-14T23:21:25.178Z,100040.88
2022-08-14T23:25:59.289Z,100036.66
2022-08-14T23:30:34.186Z,100032.09
2022-08-14T23:34:48.174Z,100027.63
2022-08-14T23:39:10.559Z,100023.41
2022-08-14T23:43:24.455Z,100016.22
2022-08-14T23:47:51.632Z,100015.63
2022-08-14T23:53:07.418Z,100013.03
2022-08-14T23:56:36.659Z,100009.34
